Terminal Aerodrome Forecast
Issued by NWS Caribou, ME

Home | Current Version | Previous Version | Text Only | Print | Product List | Glossary On
Versions: 1 2 3 4 5 6 7 8 9 10 11 12 13 14 15 16 17
000
FTUS41 KCAR 241100
TAFBGR
TAF
KBGR 241120Z 2412/2512 02010KT P6SM VCSH SCT030 OVC050
     FM241500 01007KT P6SM SCT060 BKN200
     FM242000 33006KT P6SM SCT200=

USA.gov is the U.S. government's official web portal to all federal, state and local government web resources and services.